Arcadia, WI

2:56 AM CDT en Septiembre 20, 2014 (GMT -0500)
Galesville SW | Change Station
CLOSE
Current Station
Estación meteorológica personal
Location: Galesville, WI
Altura: 769 ft
Estaciones meteorológicas cercanas

Alt 769 ft 44.07 °N, 91.39 °W | Updated 4 seconds ago

Nublado
Nublado
67.3 ° F
Sensación térmica 67.3 ° F
N
6.7
Viento Variable Viento desde SSE
Gusts 7.2 mph

Hoy
Alta -- | Baja -- ° F
--% Posibilidad de precipitaciones
Ayer
Alta -- | Baja -- ° F
Precip. -- pul
6:50 AM 7:07 PM
Creciente menguante, 14% visible
Presión 29.72 pul
Visibilidad 10.0 Millas
Nubes Nubes dispersas 3800 ft
Nubes dispersas 4500 ft
Muy nublado 11000 ft
Punto de rocío 63 ° F
Humedad 85%
Precipitaciones 0.00 pul
Espesor de la nieve No disponible.
UV 0 de una escala de 12
Polen 4.60 de una escala de 12
Calidad del aire No disponible.
Flu Activity No disponible.
METAR KONA 200735Z AUTO 24009KT 10SM -DZ SCT038 SCT045 BKN110 21/18 A2972 RMK AO2

More Conditions Fewer Conditions

Presión 29.72 pul
Visibilidad 10.0 Millas
Nubes Nubes dispersas 3800 ft
Nubes dispersas 4500 ft
Muy nublado 11000 ft
Punto de rocío 63 ° F
Humedad 85%
Precipitaciones 0.00 pul
Espesor de la nieve No disponible.
UV 0 de una escala de 12
Polen 4.60 de una escala de 12
Calidad del aire No disponible.
Flu Activity No disponible.
METAR KONA 200735Z AUTO 24009KT 10SM -DZ SCT038 SCT045 BKN110 21/18 A2972 RMK AO2

More Conditions Fewer Conditions

10-Day Weather Forecast

Almanac

Astronomía

Sep. 20, 2014 Salida Puesta
Hora real 6:50 AM CDT 7:07 PM CDT
Crepúsculo civil 6:21 AM CDT 7:36 PM CDT
Crepúsculo náutico 5:47 AM CDT 8:10 PM CDT
Crepúsculo astronómico 5:12 AM CDT 8:44 PM CDT
Luna 3:24 AM CDT 5:15 PM CDT
Horas de luz 13h 14m
Horas de luz
12h 16m
Tomorrow will be 3m 2s shorter.
Creciente menguante, 14% of the Moon is Illuminated
Hoy
Creciente menguante
Sep 24
Nueva
Oct 1
Cuarto creciente
Oct 8
Luna llena
Oct 15
Cuarto menguante

Extremos de hoy

Máximos del estado Bajos del estado

Community

WunderPhotos

Upload Photos

1,754,793 ¡fotos cargadas!

WunderBlogs® & News

Nearby

Grosos de nieve

Estación Profundido Altura
No tenemos constancia de nieve nueva.

Actividad de terremotos

Ciudad Distance Mag. Tiempo y dato
No hay informes recientes de la actividad sísmica.
Magnitud mínima muestra es 2,5.

Temperaturas de aguas costeras

Lugar Temperatura
Sin partes meteorológicos de las estaciones

Estaciones meteorológicas cercanas